Airfield :
LOGIN :

Register | Disclaimer

   EN    FR    IT 

 










Legend :    VFR   Marginal VFR   IFR   Intensive IFR   Very Intensive IFR
Visi :
Ceiling :
>= 8 km
>= 3000ft
5 to 8 km
1000 to 3000 ft
1500m to 5 km
500 to 1000 ft
800 to 1500m
200 to 500 ft
< 800m
< 200 ft
Symbols :   Thunderstorms  Fog  Heavy snow  Heavy precipitations  Wind > 20 kt
SIGMETs :     Misc.  Thunderstorms  Icing  Turbulence  Mountain Waves  Volcanic Ashes






- Airport Elevation : 436 ft
- IATA code : ANG


LFBU - Angoulême Brie Champniers

CURRENT METAR :
  • 231830Z AUTO 06006KT CAVOK 14/13 Q1005 TEMPO 4000 -SHRA BKN020TCU

EXPIRED METARs :
  • 231800Z AUTO 03005KT CAVOK 15/14 Q1005 NOSIG
  • 231730Z AUTO 04005KT 9999 FEW046 SCT072 15/14 Q1005 NOSIG
  • 231700Z AUTO 03005KT CAVOK 16/14 Q1005 NOSIG
  • 231630Z AUTO 34005KT CAVOK 16/14 Q1006 NOSIG
  • 231600Z AUTO 33008KT 9999 FEW031 SCT041 17/14 Q1005 NOSIG

TAF TAF LFBU
Valid from the 23 at 18:00 until the 24 at 18:00 UTC


231700Z 2318/2418 31005KT 9999 BKN040
TEMPO 2320/2401 4000 -SHRA BKN020TCU
PROB30
TEMPO 2321/2324 2500 -TSRA BKN020CB
BECMG 2401/2403 19010KT
BECMG 2407/2409 BKN015
TEMPO 2409/2416 3000 -RA OVC005



MET'MAP, your aeronautical weather chart ! - Copyright ORBIFLY December 2007 - Disclaimer

ORBIFLY MET'MAP TEAM :

Programming & Development : Alexandra Zaïnal
Concept & Development : Baudouin d'Aumeries
Co-Development & Prog : Marc-Olivier Méhu
Technical & hardware support : Manuel Goepfert

Contact : metmap@orbifly.com




SOURCES & CREDITS :

   NOAA